Time;durP1;ratioP1;P1;durP2;ratioP2;P2;SDS_P1;SDS_P2;PMS_P1;PMS_P2;Temp;Humidity;BMP_temperature;BMP_pressure;BME280_temperature;BME280_humidity;BME280_pressure;Samples;Min_cycle;Max_cycle;Signal;HPM_P1;HPM_P2
2023/07/25 00:02:30;;;;;;;4.47;2.08;;;;;;;;;;4933448;29;20528;-78
2023/07/25 00:04:58;;;;;;;1.98;1.55;;;;;;;;;;4892485;29;20059;-78
2023/07/25 00:07:25;;;;;;;2.05;1.85;;;;;;;;;;4906596;29;20058;-78
2023/07/25 00:09:52;;;;;;;3.35;2.10;;;;;;;;;;4893157;29;20056;-78
2023/07/25 00:12:19;;;;;;;4.50;2.13;;;;;;;;;;4927262;29;20044;-78
2023/07/25 00:14:46;;;;;;;4.20;2.10;;;;;;;;;;4915457;29;20398;-78
2023/07/25 00:17:15;;;;;;;4.80;2.63;;;;;;;;;;4911679;29;20047;-78
2023/07/25 00:19:42;;;;;;;8.30;2.20;;;;;;;;;;4911865;29;20051;-78
2023/07/25 00:22:10;;;;;;;3.22;2.10;;;;;;;;;;4899498;29;20043;-78
2023/07/25 00:24:42;;;;;;;4.13;2.37;;;;;;;;;;4931901;29;20071;-78
2023/07/25 00:27:09;;;;;;;2.95;2.00;;;;;;;;;;4897086;29;20311;-78
2023/07/25 00:29:36;;;;;;;2.58;2.05;;;;;;;;;;4903351;29;20374;-78
2023/07/25 00:32:09;;;;;;;5.38;2.10;;;;;;;;;;4931021;29;20046;-79
2023/07/25 00:34:37;;;;;;;2.25;1.95;;;;;;;;;;4892676;29;20063;-79
2023/07/25 00:37:05;;;;;;;6.03;1.73;;;;;;;;;;4895206;29;20063;-79
2023/07/25 00:39:35;;;;;;;3.88;2.40;;;;;;;;;;4912498;29;20418;-78
2023/07/25 00:42:02;;;;;;;3.72;1.98;;;;;;;;;;4929949;29;20116;-78
2023/07/25 00:44:29;;;;;;;8.45;2.53;;;;;;;;;;4915410;29;20402;-78
2023/07/25 00:46:56;;;;;;;4.88;2.67;;;;;;;;;;4931805;23;20063;-83
2023/07/25 00:49:23;;;;;;;2.63;1.80;;;;;;;;;;4932012;29;20051;-83
2023/07/25 00:51:54;;;;;;;2.55;1.70;;;;;;;;;;4922179;29;20044;-83
2023/07/25 00:54:22;;;;;;;5.10;2.10;;;;;;;;;;4920080;29;20071;-80
2023/07/25 00:56:49;;;;;;;3.50;1.70;;;;;;;;;;4921201;29;20055;-80
2023/07/25 00:59:18;;;;;;;2.70;1.98;;;;;;;;;;4935698;29;20056;-80
2023/07/25 01:01:46;;;;;;;3.55;1.80;;;;;;;;;;4930384;29;20067;-80
2023/07/25 01:04:13;;;;;;;3.13;2.22;;;;;;;;;;4921528;29;20052;-80
2023/07/25 01:06:43;;;;;;;3.22;2.47;;;;;;;;;;4928078;29;20063;-80
2023/07/25 01:09:12;;;;;;;9.30;2.63;;;;;;;;;;4936480;29;20062;-80
2023/07/25 01:11:40;;;;;;;5.93;2.65;;;;;;;;;;4954047;29;20055;-80
2023/07/25 01:14:07;;;;;;;3.05;1.70;;;;;;;;;;4928843;29;20129;-80
2023/07/25 01:16:35;;;;;;;2.80;2.10;;;;;;;;;;4927660;29;20506;-80
2023/07/25 01:19:05;;;;;;;3.20;2.38;;;;;;;;;;4943450;29;20056;-80
2023/07/25 01:21:32;;;;;;;4.03;1.92;;;;;;;;;;4933529;29;20528;-80
2023/07/25 01:24:02;;;;;;;4.38;2.28;;;;;;;;;;4921618;29;20056;-80
2023/07/25 01:26:29;;;;;;;6.82;2.60;;;;;;;;;;4916703;29;20063;-80
2023/07/25 01:28:59;;;;;;;5.30;2.20;;;;;;;;;;4937847;29;20062;-80
2023/07/25 01:31:29;;;;;;;6.05;2.53;;;;;;;;;;4934705;29;20056;-80
2023/07/25 01:33:56;;;;;;;2.25;1.65;;;;;;;;;;4916924;29;20058;-80
2023/07/25 01:36:28;;;;;;;9.60;2.42;;;;;;;;;;4921221;29;20063;-80
2023/07/25 01:38:55;;;;;;;2.55;1.90;;;;;;;;;;4920485;29;20043;-80
2023/07/25 01:41:24;;;;;;;2.63;2.00;;;;;;;;;;4937350;29;20055;-80
2023/07/25 01:43:51;;;;;;;2.58;2.35;;;;;;;;;;4936931;29;20066;-80
2023/07/25 01:46:18;;;;;;;8.13;2.17;;;;;;;;;;4924323;28;20044;-80
2023/07/25 01:48:45;;;;;;;3.97;2.03;;;;;;;;;;4937514;28;20059;-80
2023/07/25 01:51:13;;;;;;;2.83;2.20;;;;;;;;;;4923483;28;20043;-80
2023/07/25 01:53:40;;;;;;;5.95;2.35;;;;;;;;;;4926701;28;20043;-80
2023/07/25 01:56:07;;;;;;;4.32;1.80;;;;;;;;;;4922356;28;20047;-80
2023/07/25 01:58:36;;;;;;;14.07;2.67;;;;;;;;;;4926843;28;20055;-80
2023/07/25 02:01:03;;;;;;;3.88;2.33;;;;;;;;;;4935318;29;20050;-80
2023/07/25 02:03:31;;;;;;;5.72;3.30;;;;;;;;;;4941576;28;20050;-80
2023/07/25 02:06:00;;;;;;;3.30;2.42;;;;;;;;;;4923403;28;20055;-80
2023/07/25 02:08:27;;;;;;;4.00;2.55;;;;;;;;;;4920887;28;20058;-80
2023/07/25 02:10:55;;;;;;;3.70;2.78;;;;;;;;;;4939894;28;20047;-80
2023/07/25 02:13:22;;;;;;;3.83;2.45;;;;;;;;;;4926226;28;20054;-80
2023/07/25 02:15:51;;;;;;;4.50;3.05;;;;;;;;;;4941014;28;20062;-80
2023/07/25 02:18:18;;;;;;;4.13;2.30;;;;;;;;;;4956464;28;20051;-80
2023/07/25 02:20:45;;;;;;;4.35;3.20;;;;;;;;;;4940850;28;20051;-80
2023/07/25 02:23:13;;;;;;;3.90;3.03;;;;;;;;;;4925675;29;20059;-80
2023/07/25 02:25:40;;;;;;;2.70;1.80;;;;;;;;;;4935915;28;20044;-80
2023/07/25 02:28:07;;;;;;;5.15;2.30;;;;;;;;;;4942069;28;20062;-80
2023/07/25 02:30:37;;;;;;;3.55;2.22;;;;;;;;;;4937784;28;20239;-80
2023/07/25 02:33:05;;;;;;;5.47;2.65;;;;;;;;;;4942987;29;20035;-80
2023/07/25 02:35:33;;;;;;;2.78;1.95;;;;;;;;;;4953331;28;20051;-80
2023/07/25 02:38:00;;;;;;;2.88;2.58;;;;;;;;;;4932520;29;20047;-80
2023/07/25 02:40:27;;;;;;;3.10;2.08;;;;;;;;;;4924111;29;20062;-80
2023/07/25 02:42:54;;;;;;;4.20;2.75;;;;;;;;;;4931078;29;20051;-80
2023/07/25 02:45:22;;;;;;;3.55;2.25;;;;;;;;;;4933077;28;20063;-80
2023/07/25 02:47:49;;;;;;;5.53;2.58;;;;;;;;;;4926029;28;20062;-80
2023/07/25 02:50:17;;;;;;;5.18;2.72;;;;;;;;;;4941480;29;20050;-80
2023/07/25 02:52:47;;;;;;;4.25;2.78;;;;;;;;;;4933978;28;20081;-80
2023/07/25 02:55:14;;;;;;;2.67;2.08;;;;;;;;;;4944648;28;20063;-80
2023/07/25 02:57:42;;;;;;;4.85;2.25;;;;;;;;;;4946483;28;20055;-80
2023/07/25 03:00:10;;;;;;;4.07;2.78;;;;;;;;;;4916933;28;20059;-80
2023/07/25 03:02:39;;;;;;;4.00;2.72;;;;;;;;;;4931747;28;20058;-80
2023/07/25 03:05:07;;;;;;;3.78;2.88;;;;;;;;;;4931055;28;20163;-80
2023/07/25 03:07:38;;;;;;;3.28;2.60;;;;;;;;;;4933405;28;20066;-80
2023/07/25 03:10:07;;;;;;;3.65;3.35;;;;;;;;;;4945611;28;20043;-80
2023/07/25 03:12:34;;;;;;;3.30;2.35;;;;;;;;;;4931792;28;20062;-80
2023/07/25 03:15:05;;;;;;;2.83;2.53;;;;;;;;;;4947254;29;20058;-80
2023/07/25 03:17:33;;;;;;;3.60;2.50;;;;;;;;;;4943251;29;20066;-80
2023/07/25 03:20:00;;;;;;;4.35;3.38;;;;;;;;;;4928309;28;20051;-80
2023/07/25 03:22:27;;;;;;;5.88;2.40;;;;;;;;;;4959128;28;20062;-80
2023/07/25 03:24:56;;;;;;;6.45;2.58;;;;;;;;;;4926020;29;20058;-80
2023/07/25 03:27:23;;;;;;;3.25;2.95;;;;;;;;;;4944089;29;20052;-80
2023/07/25 03:29:51;;;;;;;3.92;2.63;;;;;;;;;;4956243;28;20062;-80
2023/07/25 03:32:18;;;;;;;3.03;2.60;;;;;;;;;;4919476;28;20047;-80
2023/07/25 03:34:45;;;;;;;3.22;2.08;;;;;;;;;;4924635;28;20055;-80
2023/07/25 03:37:12;;;;;;;3.75;2.35;;;;;;;;;;4935930;28;20515;-80
2023/07/25 03:39:41;;;;;;;3.17;2.13;;;;;;;;;;4937235;29;20051;-80
2023/07/25 03:42:09;;;;;;;4.00;2.55;;;;;;;;;;4934028;29;20052;-80
2023/07/25 03:44:39;;;;;;;5.47;2.97;;;;;;;;;;4932002;28;20050;-80
2023/07/25 03:47:06;;;;;;;5.38;2.47;;;;;;;;;;4932231;28;20047;-82
2023/07/25 03:49:34;;;;;;;3.72;2.53;;;;;;;;;;4933574;29;20058;-82
2023/07/25 03:52:04;;;;;;;4.00;2.42;;;;;;;;;;4960282;28;20081;-81
2023/07/25 03:54:31;;;;;;;4.10;2.08;;;;;;;;;;4925377;28;20077;-82
2023/07/25 03:56:58;;;;;;;3.33;2.20;;;;;;;;;;4954484;28;20050;-82
2023/07/25 03:59:27;;;;;;;3.60;2.28;;;;;;;;;;4922876;29;20048;-82
2023/07/25 04:01:54;;;;;;;3.72;3.17;;;;;;;;;;4930484;29;20066;-82
2023/07/25 04:04:21;;;;;;;6.13;3.63;;;;;;;;;;4940698;28;20526;-82
2023/07/25 04:06:48;;;;;;;3.03;2.67;;;;;;;;;;4924909;29;20050;-81
2023/07/25 04:09:16;;;;;;;3.75;2.60;;;;;;;;;;4935559;28;20066;-81
2023/07/25 04:11:43;;;;;;;5.07;2.75;;;;;;;;;;4921322;28;20051;-81
2023/07/25 04:14:12;;;;;;;3.53;2.35;;;;;;;;;;4915201;29;20124;-80
2023/07/25 04:16:43;;;;;;;4.05;2.42;;;;;;;;;;4936083;28;20050;-80
2023/07/25 04:19:13;;;;;;;3.20;2.60;;;;;;;;;;4935825;29;20062;-80
2023/07/25 04:21:43;;;;;;;3.58;2.65;;;;;;;;;;4915333;29;20494;-80
2023/07/25 04:24:10;;;;;;;3.70;2.70;;;;;;;;;;4944551;28;20053;-80
2023/07/25 04:26:37;;;;;;;3.55;2.72;;;;;;;;;;4934501;28;20047;-80
2023/07/25 04:29:05;;;;;;;3.45;2.08;;;;;;;;;;4917322;29;20078;-80
2023/07/25 04:31:35;;;;;;;4.38;2.83;;;;;;;;;;4947330;28;20047;-80
2023/07/25 04:34:04;;;;;;;3.28;2.15;;;;;;;;;;4913963;29;20052;-80
2023/07/25 04:36:31;;;;;;;4.60;2.70;;;;;;;;;;4929063;29;20072;-80
2023/07/25 04:39:01;;;;;;;4.70;2.20;;;;;;;;;;4934731;29;20047;-80
2023/07/25 04:41:28;;;;;;;3.13;2.72;;;;;;;;;;4938414;29;20047;-80
2023/07/25 04:43:55;;;;;;;3.88;3.28;;;;;;;;;;4954017;28;20051;-80
2023/07/25 04:46:24;;;;;;;4.30;3.13;;;;;;;;;;4923693;29;20054;-80
2023/07/25 04:48:54;;;;;;;6.13;2.58;;;;;;;;;;4939068;29;20398;-80
2023/07/25 04:51:23;;;;;;;7.70;3.50;;;;;;;;;;4933379;29;20048;-80
2023/07/25 04:53:50;;;;;;;5.40;4.22;;;;;;;;;;4933984;28;20055;-80
2023/07/25 04:56:18;;;;;;;11.40;3.40;;;;;;;;;;4921220;29;20062;-80
2023/07/25 04:58:47;;;;;;;3.25;2.90;;;;;;;;;;4936986;29;20421;-80
2023/07/25 05:01:19;;;;;;;7.55;4.05;;;;;;;;;;4949031;28;20063;-80
2023/07/25 05:03:49;;;;;;;5.03;3.10;;;;;;;;;;4943166;28;20058;-80
2023/07/25 05:06:16;;;;;;;3.35;2.97;;;;;;;;;;4935800;29;20633;-80
2023/07/25 05:08:45;;;;;;;5.85;3.42;;;;;;;;;;4949385;28;20043;-80
2023/07/25 05:11:14;;;;;;;5.70;3.15;;;;;;;;;;4952742;28;20047;-80
2023/07/25 05:13:43;;;;;;;4.45;3.20;;;;;;;;;;4917706;29;20047;-80
2023/07/25 05:16:11;;;;;;;4.35;3.38;;;;;;;;;;4918816;29;20113;-80
2023/07/25 05:18:38;;;;;;;3.25;2.53;;;;;;;;;;4934597;29;20058;-80
2023/07/25 05:21:07;;;;;;;4.68;2.65;;;;;;;;;;4936630;29;20070;-80
2023/07/25 06:20:15;;;;;;;4.43;2.95;;;;;;;;;;4973021;28;20193;-92
2023/07/25 06:22:44;;;;;;;3.75;2.78;;;;;;;;;;4973658;28;20431;-93
2023/07/25 06:25:14;;;;;;;3.97;2.35;;;;;;;;;;4976217;28;20055;-93
2023/07/25 06:27:41;;;;;;;3.53;2.88;;;;;;;;;;4974385;28;20070;-94
2023/07/25 06:30:11;;;;;;;4.35;3.60;;;;;;;;;;4968476;28;20066;-93
2023/07/25 06:32:41;;;;;;;3.22;2.58;;;;;;;;;;4978070;28;20052;-94
2023/07/25 06:35:09;;;;;;;3.10;2.17;;;;;;;;;;4978856;28;20050;-93
2023/07/25 06:37:38;;;;;;;5.07;3.15;;;;;;;;;;4974393;28;20046;-93
2023/07/25 07:04:48;;;;;;;2.70;2.13;;;;;;;;;;4997441;28;20039;-93
2023/07/25 07:07:15;;;;;;;2.60;2.13;;;;;;;;;;4973399;28;20046;-93
2023/07/25 07:09:43;;;;;;;2.53;2.22;;;;;;;;;;4947393;28;20066;-92
2023/07/25 07:12:10;;;;;;;5.97;3.20;;;;;;;;;;4952760;28;20069;-92
2023/07/25 07:14:37;;;;;;;2.90;2.35;;;;;;;;;;4971111;28;20050;-92
2023/07/25 07:17:07;;;;;;;2.67;2.25;;;;;;;;;;4981970;28;20053;-93
2023/07/25 07:19:38;;;;;;;2.78;2.38;;;;;;;;;;4972915;28;20051;-92
2023/07/25 07:22:07;;;;;;;4.30;2.28;;;;;;;;;;4962250;28;20055;-93
2023/07/25 07:24:37;;;;;;;3.38;2.00;;;;;;;;;;4962893;28;20047;-93
2023/07/25 07:27:05;;;;;;;3.63;3.15;;;;;;;;;;4950268;28;20682;-93
2023/07/25 07:29:33;;;;;;;5.25;2.42;;;;;;;;;;4987649;28;20050;-92
2023/07/25 07:32:02;;;;;;;3.00;1.70;;;;;;;;;;4978488;28;20423;-92
2023/07/25 07:34:30;;;;;;;3.17;2.85;;;;;;;;;;4981140;28;20062;-92
2023/07/25 07:36:57;;;;;;;2.70;2.50;;;;;;;;;;4968708;28;20053;-93
2023/07/25 07:39:26;;;;;;;5.78;2.40;;;;;;;;;;4976198;28;20058;-93
2023/07/25 07:41:56;;;;;;;5.10;2.42;;;;;;;;;;4960014;28;20079;-92
2023/07/25 07:44:24;;;;;;;2.45;2.25;;;;;;;;;;4968485;28;20053;-93
2023/07/25 07:46:51;;;;;;;3.45;2.45;;;;;;;;;;4967020;28;20046;-93
2023/07/25 07:49:18;;;;;;;3.30;2.10;;;;;;;;;;4942343;28;20047;-92
2023/07/25 07:51:46;;;;;;;7.18;2.83;;;;;;;;;;4952999;28;20051;-93
2023/07/25 07:54:13;;;;;;;2.50;1.40;;;;;;;;;;4960128;28;20057;-93
2023/07/25 07:56:42;;;;;;;6.45;2.15;;;;;;;;;;4990552;28;20807;-92
2023/07/25 07:59:11;;;;;;;4.47;2.65;;;;;;;;;;4979736;28;20054;-93
2023/07/25 08:01:41;;;;;;;3.20;2.13;;;;;;;;;;4968564;28;20058;-94
2023/07/25 08:04:11;;;;;;;3.38;2.50;;;;;;;;;;4946017;28;20073;-92
2023/07/25 08:06:41;;;;;;;4.13;2.55;;;;;;;;;;4948830;28;20042;-93
2023/07/25 08:09:08;;;;;;;3.83;2.10;;;;;;;;;;4953482;28;20079;-94
2023/07/25 08:11:36;;;;;;;3.20;2.58;;;;;;;;;;4956653;28;20081;-93
2023/07/25 08:14:04;;;;;;;5.57;2.97;;;;;;;;;;4980416;28;20065;-93
2023/07/25 08:16:32;;;;;;;3.72;2.58;;;;;;;;;;4975153;28;20058;-93
2023/07/25 08:18:59;;;;;;;2.92;2.42;;;;;;;;;;4970619;28;20051;-92
2023/07/25 08:21:27;;;;;;;2.60;2.13;;;;;;;;;;4973314;28;20056;-92
2023/07/25 08:23:54;;;;;;;3.55;2.65;;;;;;;;;;4953820;28;20059;-93
2023/07/25 08:26:21;;;;;;;2.30;2.10;;;;;;;;;;4968100;28;20055;-94
2023/07/25 08:28:51;;;;;;;2.70;2.45;;;;;;;;;;4972506;28;20062;-92
2023/07/25 08:31:21;;;;;;;2.55;2.10;;;;;;;;;;4958073;28;20435;-93
2023/07/25 08:33:48;;;;;;;3.42;2.67;;;;;;;;;;4996466;28;20050;-93
2023/07/25 08:36:18;;;;;;;3.38;2.50;;;;;;;;;;4938404;28;20073;-91
2023/07/25 08:38:46;;;;;;;3.88;2.35;;;;;;;;;;4970912;28;20064;-93
2023/07/25 08:41:17;;;;;;;3.15;2.50;;;;;;;;;;4962694;28;20065;-93
2023/07/25 08:43:44;;;;;;;4.85;2.80;;;;;;;;;;4968087;28;20416;-94
2023/07/25 08:46:13;;;;;;;5.03;3.83;;;;;;;;;;4963541;28;20051;-93
2023/07/25 08:48:43;;;;;;;4.30;2.95;;;;;;;;;;4966914;28;20063;-92
2023/07/25 08:51:15;;;;;;;4.50;3.47;;;;;;;;;;4960013;28;20057;-93
2023/07/25 08:53:49;;;;;;;4.97;3.15;;;;;;;;;;4972970;28;20054;-94
2023/07/25 08:56:17;;;;;;;4.28;2.55;;;;;;;;;;4974799;28;20035;-93
2023/07/25 08:58:46;;;;;;;2.50;2.13;;;;;;;;;;4951359;28;20055;-94
2023/07/25 09:01:16;;;;;;;5.47;2.08;;;;;;;;;;4977104;28;20049;-93
2023/07/25 09:03:45;;;;;;;2.10;1.45;;;;;;;;;;4958789;28;20046;-94
2023/07/25 09:06:13;;;;;;;1.77;1.55;;;;;;;;;;4979329;28;20042;-94
2023/07/25 09:08:41;;;;;;;1.88;1.50;;;;;;;;;;4956616;28;20050;-93
2023/07/25 09:11:14;;;;;;;2.78;1.73;;;;;;;;;;4991963;28;20081;-94
2023/07/25 09:13:42;;;;;;;2.08;1.80;;;;;;;;;;4961967;28;20050;-94
2023/07/25 09:16:09;;;;;;;2.47;1.60;;;;;;;;;;4963175;28;20054;-93
2023/07/25 09:18:37;;;;;;;2.92;2.10;;;;;;;;;;4972361;28;20046;-94
2023/07/25 09:21:08;;;;;;;2.55;1.55;;;;;;;;;;4964122;28;20055;-94
2023/07/25 09:23:35;;;;;;;1.77;1.63;;;;;;;;;;4981033;28;20046;-93
2023/07/25 09:26:05;;;;;;;2.95;2.00;;;;;;;;;;4968441;28;20050;-94
2023/07/25 09:28:32;;;;;;;1.70;1.48;;;;;;;;;;4998538;28;20514;-94
2023/07/25 09:31:02;;;;;;;1.88;1.50;;;;;;;;;;4996060;28;20054;-94
2023/07/25 09:33:29;;;;;;;2.33;1.60;;;;;;;;;;4973586;28;20043;-94
2023/07/25 09:35:59;;;;;;;2.03;1.83;;;;;;;;;;4981583;28;20057;-94
2023/07/25 09:38:28;;;;;;;1.90;1.42;;;;;;;;;;4978929;28;20047;-92
2023/07/25 09:40:56;;;;;;;1.75;1.38;;;;;;;;;;4983961;28;20062;-94
2023/07/25 09:43:24;;;;;;;2.92;1.45;;;;;;;;;;4989018;28;20049;-94
2023/07/25 09:45:54;;;;;;;3.10;2.65;;;;;;;;;;4981833;28;20522;-94
2023/07/25 09:48:24;;;;;;;2.05;1.83;;;;;;;;;;4990035;28;20432;-94
2023/07/25 09:50:52;;;;;;;3.15;1.73;;;;;;;;;;4961956;28;20051;-93
2023/07/25 09:53:19;;;;;;;3.10;2.05;;;;;;;;;;4972849;28;20051;-93
2023/07/25 09:55:48;;;;;;;2.75;1.50;;;;;;;;;;4970093;28;20062;-93
2023/07/25 09:58:15;;;;;;;4.70;1.80;;;;;;;;;;4977853;28;20504;-93
2023/07/25 10:00:42;;;;;;;2.25;1.63;;;;;;;;;;4967383;28;20049;-93
2023/07/25 10:03:10;;;;;;;3.08;1.52;;;;;;;;;;4946990;28;20054;-92
2023/07/25 10:05:44;;;;;;;2.13;1.27;;;;;;;;;;4965183;28;20047;-93
2023/07/25 10:08:15;;;;;;;5.22;2.20;;;;;;;;;;4958440;28;20047;-91
2023/07/25 10:10:44;;;;;;;2.70;1.50;;;;;;;;;;4954364;28;20051;-93
2023/07/25 10:13:15;;;;;;;1.50;0.95;;;;;;;;;;4956193;28;20066;-93
2023/07/25 10:15:42;;;;;;;1.23;0.98;;;;;;;;;;4951395;28;20049;-92
2023/07/25 10:18:19;;;;;;;2.30;1.13;;;;;;;;;;4975412;28;20431;-93
2023/07/25 10:20:49;;;;;;;1.23;0.75;;;;;;;;;;4965403;28;20065;-94
2023/07/25 10:23:16;;;;;;;2.00;1.10;;;;;;;;;;4958523;28;20053;-93
2023/07/25 10:25:44;;;;;;;2.13;1.10;;;;;;;;;;4974471;28;20057;-93
2023/07/25 10:28:13;;;;;;;3.85;0.70;;;;;;;;;;4973715;28;20059;-93
2023/07/25 10:30:43;;;;;;;1.05;0.65;;;;;;;;;;4963236;28;20066;-94
2023/07/25 10:33:14;;;;;;;0.57;0.35;;;;;;;;;;4974611;28;20500;-93
2023/07/25 10:35:50;;;;;;;0.65;0.63;;;;;;;;;;4977411;28;20432;-93
2023/07/25 10:38:24;;;;;;;0.80;0.52;;;;;;;;;;4982242;28;20531;-92
2023/07/25 10:40:56;;;;;;;1.73;1.00;;;;;;;;;;4956526;28;20051;-92
2023/07/25 10:43:57;;;;;;;0.98;0.70;;;;;;;;;;4951603;28;20046;-93
2023/07/25 10:46:28;;;;;;;0.85;0.47;;;;;;;;;;4951280;28;20066;-93
2023/07/25 10:49:00;;;;;;;1.10;0.60;;;;;;;;;;4965828;28;20073;-94
2023/07/25 10:51:49;;;;;;;2.22;0.52;;;;;;;;;;4971175;28;20073;-93
2023/07/25 10:54:17;;;;;;;1.15;0.80;;;;;;;;;;4978942;28;20058;-92
2023/07/25 10:57:16;;;;;;;1.50;0.68;;;;;;;;;;4981912;28;20058;-93
2023/07/25 11:00:04;;;;;;;0.98;0.52;;;;;;;;;;4976840;28;20066;-92
2023/07/25 11:02:34;;;;;;;0.75;0.50;;;;;;;;;;4971868;28;20055;-93
2023/07/25 11:05:25;;;;;;;0.60;0.57;;;;;;;;;;4972957;28;20062;-92
2023/07/25 11:07:55;;;;;;;1.08;0.98;;;;;;;;;;4967547;28;20054;-93
2023/07/25 11:10:23;;;;;;;0.95;0.82;;;;;;;;;;4962475;28;20054;-93
2023/07/25 11:12:55;;;;;;;1.10;0.80;;;;;;;;;;4989649;28;20042;-92
2023/07/25 11:15:24;;;;;;;1.52;0.75;;;;;;;;;;4967535;28;20101;-92
2023/07/25 11:17:52;;;;;;;1.38;0.70;;;;;;;;;;4983950;28;20043;-94
2023/07/25 11:20:21;;;;;;;0.95;0.85;;;;;;;;;;4984812;28;20816;-94
2023/07/25 11:22:50;;;;;;;1.08;0.80;;;;;;;;;;4970173;28;20051;-92
2023/07/25 11:25:17;;;;;;;0.60;0.60;;;;;;;;;;4976711;28;20077;-94
2023/07/25 11:27:46;;;;;;;1.20;1.05;;;;;;;;;;4983496;28;20050;-93
2023/07/25 11:30:17;;;;;;;0.35;0.32;;;;;;;;;;4947456;28;20051;-94
2023/07/25 11:32:51;;;;;;;1.60;0.57;;;;;;;;;;4971517;28;20050;-94
2023/07/25 11:35:18;;;;;;;1.38;0.90;;;;;;;;;;4980378;28;20050;-93
2023/07/25 11:37:49;;;;;;;0.63;0.60;;;;;;;;;;4986856;28;20423;-94
2023/07/25 11:40:19;;;;;;;0.75;0.45;;;;;;;;;;5001645;28;20051;-93
2023/07/25 11:42:50;;;;;;;0.73;0.60;;;;;;;;;;4996113;28;20043;-93
2023/07/25 11:45:20;;;;;;;0.88;0.68;;;;;;;;;;5008368;28;20102;-92
2023/07/25 11:47:51;;;;;;;0.77;0.60;;;;;;;;;;5000789;28;20054;-93
2023/07/25 11:50:21;;;;;;;0.73;0.57;;;;;;;;;;4990527;28;20043;-93
2023/07/25 11:52:49;;;;;;;0.43;0.38;;;;;;;;;;4990835;28;20058;-94
2023/07/25 11:55:16;;;;;;;1.05;0.70;;;;;;;;;;4971234;28;20053;-94
2023/07/25 11:57:43;;;;;;;0.77;0.65;;;;;;;;;;4953382;28;20050;-94
2023/07/25 12:00:12;;;;;;;0.45;0.45;;;;;;;;;;4964840;28;20057;-92
2023/07/25 12:02:40;;;;;;;1.05;0.82;;;;;;;;;;4954994;28;20061;-94
2023/07/25 12:05:26;;;;;;;1.20;0.70;;;;;;;;;;4959671;28;20065;-95
2023/07/25 12:08:00;;;;;;;1.30;0.98;;;;;;;;;;4983323;28;20049;-94
2023/07/25 12:10:28;;;;;;;1.02;0.75;;;;;;;;;;4981290;28;20043;-93
2023/07/25 12:12:56;;;;;;;1.27;0.70;;;;;;;;;;4972019;28;20065;-95
2023/07/25 12:15:43;;;;;;;2.92;1.60;;;;;;;;;;4959960;28;20054;-95
2023/07/25 12:18:14;;;;;;;1.63;1.10;;;;;;;;;;4968723;28;20547;-94
2023/07/25 12:20:47;;;;;;;1.83;1.65;;;;;;;;;;4991580;28;20046;-93
2023/07/25 12:23:27;;;;;;;1.63;1.00;;;;;;;;;;5002757;28;20033;-91
2023/07/25 12:25:57;;;;;;;2.67;1.30;;;;;;;;;;4983464;28;20566;-94
2023/07/25 12:28:25;;;;;;;1.27;1.13;;;;;;;;;;5001914;28;20050;-92
2023/07/25 12:30:52;;;;;;;2.38;1.73;;;;;;;;;;4987217;28;20054;-94
2023/07/25 12:33:20;;;;;;;1.73;1.35;;;;;;;;;;4990784;28;20069;-94
2023/07/25 12:35:50;;;;;;;1.75;1.40;;;;;;;;;;4986909;28;20047;-93
2023/07/25 12:38:18;;;;;;;4.20;2.53;;;;;;;;;;4958326;28;20523;-94
2023/07/25 12:40:45;;;;;;;1.92;1.42;;;;;;;;;;4971413;28;20239;-93
2023/07/25 12:43:12;;;;;;;2.40;1.55;;;;;;;;;;4980706;28;20051;-94
2023/07/25 12:45:40;;;;;;;5.13;1.85;;;;;;;;;;4979532;28;20051;-93
2023/07/25 12:48:07;;;;;;;2.33;1.48;;;;;;;;;;4966548;28;20058;-94
2023/07/25 12:50:39;;;;;;;1.75;1.50;;;;;;;;;;4989843;28;20050;-93
2023/07/25 12:53:07;;;;;;;1.52;1.20;;;;;;;;;;4969680;28;20059;-93
2023/07/25 12:55:35;;;;;;;2.35;1.80;;;;;;;;;;4970074;28;20054;-93
2023/07/25 12:58:03;;;;;;;1.50;1.38;;;;;;;;;;4986525;28;20066;-94
2023/07/25 13:00:30;;;;;;;1.45;1.08;;;;;;;;;;4984456;28;20050;-93
2023/07/25 13:02:58;;;;;;;2.03;1.58;;;;;;;;;;4947204;28;20054;-93
2023/07/25 13:05:27;;;;;;;2.08;1.38;;;;;;;;;;4959760;28;20050;-93
2023/07/25 13:07:58;;;;;;;1.98;1.77;;;;;;;;;;4963930;28;20046;-94
2023/07/25 13:10:28;;;;;;;1.80;1.55;;;;;;;;;;4983059;28;20424;-94
2023/07/25 13:12:55;;;;;;;1.48;1.38;;;;;;;;;;4976697;28;20055;-93
2023/07/25 13:15:22;;;;;;;1.23;1.10;;;;;;;;;;4982683;28;20514;-94
2023/07/25 13:17:50;;;;;;;1.88;1.40;;;;;;;;;;4969893;28;20065;-94
2023/07/25 13:20:21;;;;;;;1.50;1.20;;;;;;;;;;4975052;28;20061;-94
2023/07/25 13:22:48;;;;;;;2.17;1.58;;;;;;;;;;4960871;28;20051;-93
2023/07/25 13:25:18;;;;;;;1.45;1.17;;;;;;;;;;4988117;28;20046;-94
2023/07/25 13:27:47;;;;;;;1.27;1.17;;;;;;;;;;4954092;28;20050;-93
2023/07/25 13:30:17;;;;;;;1.85;1.10;;;;;;;;;;4954676;28;20057;-93
2023/07/25 13:32:44;;;;;;;2.85;1.35;;;;;;;;;;4963527;28;20851;-94
2023/07/25 13:35:12;;;;;;;2.30;1.58;;;;;;;;;;4982494;28;20042;-93
2023/07/25 13:37:39;;;;;;;1.92;1.33;;;;;;;;;;4967029;28;20042;-94
2023/07/25 13:40:08;;;;;;;1.13;1.02;;;;;;;;;;4972144;28;20050;-93
2023/07/25 13:42:35;;;;;;;1.20;1.10;;;;;;;;;;4990898;28;20053;-93
2023/07/25 13:45:05;;;;;;;2.88;1.27;;;;;;;;;;4986922;28;20047;-94
2023/07/25 13:47:32;;;;;;;1.90;1.65;;;;;;;;;;5000595;28;20046;-94
2023/07/25 13:50:00;;;;;;;2.03;1.40;;;;;;;;;;4979511;28;20511;-92
2023/07/25 13:52:28;;;;;;;2.20;1.67;;;;;;;;;;4977637;28;20062;-94
2023/07/25 13:54:56;;;;;;;2.33;1.35;;;;;;;;;;4995487;28;20046;-94
2023/07/25 13:57:23;;;;;;;2.95;1.00;;;;;;;;;;4994755;28;20531;-94
2023/07/25 13:59:51;;;;;;;1.58;1.20;;;;;;;;;;5000313;28;20060;-93
2023/07/25 14:02:22;;;;;;;2.13;1.30;;;;;;;;;;4986062;28;20064;-94
2023/07/25 14:04:49;;;;;;;1.40;1.15;;;;;;;;;;4955690;28;20085;-94
2023/07/25 14:07:19;;;;;;;1.65;1.25;;;;;;;;;;4991897;28;20054;-94
2023/07/25 14:09:46;;;;;;;1.85;1.63;;;;;;;;;;5004217;28;20488;-93
2023/07/25 14:12:14;;;;;;;1.58;1.48;;;;;;;;;;4985147;28;20051;-94
2023/07/25 14:14:42;;;;;;;3.60;1.80;;;;;;;;;;4977173;28;20055;-95
2023/07/25 14:17:09;;;;;;;2.60;1.83;;;;;;;;;;4994748;28;20050;-94
2023/07/25 14:19:38;;;;;;;2.67;2.22;;;;;;;;;;4981414;28;20526;-94
2023/07/25 14:22:06;;;;;;;2.90;2.28;;;;;;;;;;4988132;28;20054;-92
2023/07/25 14:24:33;;;;;;;2.45;1.98;;;;;;;;;;4958535;28;20046;-95
2023/07/25 14:27:00;;;;;;;2.38;2.17;;;;;;;;;;5004903;28;20045;-90
2023/07/25 14:29:28;;;;;;;3.25;2.17;;;;;;;;;;5002629;28;20073;-92
2023/07/25 14:31:58;;;;;;;2.75;2.17;;;;;;;;;;5000328;28;20039;-93
2023/07/25 14:34:25;;;;;;;3.47;2.00;;;;;;;;;;4994537;28;20054;-94
2023/07/25 14:36:56;;;;;;;2.72;2.03;;;;;;;;;;4974790;28;20061;-93
2023/07/25 14:39:28;;;;;;;2.40;1.77;;;;;;;;;;4996460;28;20034;-94
2023/07/25 14:41:57;;;;;;;2.67;1.63;;;;;;;;;;4963158;28;20050;-92
2023/07/25 14:44:24;;;;;;;2.42;1.92;;;;;;;;;;4991387;28;20047;-94
2023/07/25 14:46:51;;;;;;;1.98;1.83;;;;;;;;;;4982630;28;20515;-93
2023/07/25 14:49:19;;;;;;;2.60;2.22;;;;;;;;;;4951446;28;20043;-95
2023/07/25 14:51:46;;;;;;;2.55;1.88;;;;;;;;;;4978290;28;20050;-94
2023/07/25 14:54:16;;;;;;;2.55;1.73;;;;;;;;;;4984890;28;20119;-93
2023/07/25 14:56:43;;;;;;;2.30;2.10;;;;;;;;;;5000235;28;20051;-93
2023/07/25 14:59:15;;;;;;;3.03;2.17;;;;;;;;;;4952641;28;20061;-93
2023/07/25 15:01:43;;;;;;;3.17;2.05;;;;;;;;;;4995150;28;20077;-94
2023/07/25 15:04:10;;;;;;;2.72;1.95;;;;;;;;;;4963522;28;20058;-93
2023/07/25 15:06:40;;;;;;;1.95;1.75;;;;;;;;;;4970058;28;20053;-94
2023/07/25 15:09:07;;;;;;;2.67;2.00;;;;;;;;;;4950951;28;20523;-95
2023/07/25 15:11:36;;;;;;;2.28;2.08;;;;;;;;;;4978458;28;20054;-94
2023/07/25 15:14:03;;;;;;;3.15;2.33;;;;;;;;;;4979201;28;20046;-92
2023/07/25 15:16:31;;;;;;;2.55;2.35;;;;;;;;;;4983340;28;20587;-94
2023/07/25 15:18:58;;;;;;;3.25;1.98;;;;;;;;;;4969373;28;20039;-91
2023/07/25 15:21:26;;;;;;;3.00;2.55;;;;;;;;;;4991953;28;20042;-91
2023/07/25 15:23:53;;;;;;;2.58;2.15;;;;;;;;;;4967198;28;20059;-93
2023/07/25 15:26:21;;;;;;;2.95;1.65;;;;;;;;;;4954214;28;20055;-91
2023/07/25 15:28:52;;;;;;;3.42;2.67;;;;;;;;;;4953740;28;20085;-92
2023/07/25 15:31:22;;;;;;;3.35;2.35;;;;;;;;;;4970669;28;20050;-93
2023/07/25 15:33:49;;;;;;;4.18;2.78;;;;;;;;;;4944406;28;20059;-92
2023/07/25 15:36:17;;;;;;;3.42;2.95;;;;;;;;;;4980906;28;20054;-91
2023/07/25 15:38:44;;;;;;;3.03;2.67;;;;;;;;;;4994380;28;20054;-92
2023/07/25 15:41:12;;;;;;;3.65;2.17;;;;;;;;;;4952247;28;20047;-90
2023/07/25 15:43:42;;;;;;;5.38;3.05;;;;;;;;;;4941087;28;20050;-92
2023/07/25 15:46:11;;;;;;;3.63;2.83;;;;;;;;;;4968886;28;20046;-91
2023/07/25 15:48:38;;;;;;;2.90;2.58;;;;;;;;;;4973686;28;20047;-92
2023/07/25 15:51:08;;;;;;;2.88;2.58;;;;;;;;;;4950133;28;20142;-92
2023/07/25 15:53:35;;;;;;;3.30;2.42;;;;;;;;;;4966668;28;20050;-92
2023/07/25 15:56:03;;;;;;;4.25;3.25;;;;;;;;;;4962049;28;20051;-92
2023/07/25 15:58:30;;;;;;;3.13;2.45;;;;;;;;;;4965909;28;20061;-92
2023/07/25 16:01:01;;;;;;;4.18;2.72;;;;;;;;;;4979227;28;20060;-92
2023/07/25 16:03:33;;;;;;;2.65;2.40;;;;;;;;;;4962493;28;20054;-92
2023/07/25 16:06:05;;;;;;;4.47;2.30;;;;;;;;;;4961731;28;20054;-91
2023/07/25 16:08:35;;;;;;;2.63;2.43;;;;;;;;;;4967388;28;20043;-91
2023/07/25 16:11:02;;;;;;;3.10;1.98;;;;;;;;;;4954095;28;20052;-92
2023/07/25 16:13:29;;;;;;;2.65;2.25;;;;;;;;;;4953642;28;20050;-92
2023/07/25 16:15:57;;;;;;;3.10;2.42;;;;;;;;;;4983419;28;20128;-92